Time;durP1;ratioP1;P1;durP2;ratioP2;P2;SDS_P1;SDS_P2;PMS_P1;PMS_P2;Temp;Humidity;BMP_temperature;BMP_pressure;BME280_temperature;BME280_humidity;BME280_pressure;Samples;Min_cycle;Max_cycle;Signal;HPM_P1;HPM_P2
2022/11/29 00:09:37;;;;;;;38.13;22.77;;;;;;;7.04;100.00;100114.81;20652207;28;20454;-76
2022/11/29 00:19:38;;;;;;;39.35;22.55;;;;;;;7.08;100.00;100113.94;20688412;28;20050;-76
2022/11/29 00:29:39;;;;;;;38.80;22.80;;;;;;;7.08;100.00;100114.78;20749934;28;20071;-75
2022/11/29 00:39:41;;;;;;;40.15;22.10;;;;;;;7.09;100.00;100110.44;20747630;28;20057;-76
2022/11/29 00:49:42;;;;;;;46.08;25.38;;;;;;;7.10;100.00;100107.84;20747209;28;20426;-76
2022/11/29 00:59:43;;;;;;;42.97;23.80;;;;;;;7.10;100.00;100112.22;20746595;28;20494;-75
2022/11/29 01:09:44;;;;;;;44.00;23.23;;;;;;;7.14;100.00;100121.72;20746253;28;20050;-75
2022/11/29 01:19:46;;;;;;;40.92;24.08;;;;;;;7.17;100.00;100119.94;20718040;28;20050;-75
2022/11/29 01:29:51;;;;;;;41.33;24.00;;;;;;;7.16;100.00;100123.44;20678354;28;20502;-76
2022/11/29 01:39:52;;;;;;;39.22;23.63;;;;;;;7.20;100.00;100125.16;20741694;28;20080;-74
2022/11/29 01:49:53;;;;;;;34.70;20.55;;;;;;;7.17;100.00;100126.91;20743199;28;20045;-74
2022/11/29 01:59:55;;;;;;;33.13;19.08;;;;;;;7.18;100.00;100126.88;20742069;28;20061;-74
2022/11/29 02:09:56;;;;;;;33.05;18.73;;;;;;;7.28;100.00;100134.63;20740761;28;20053;-73
2022/11/29 02:19:57;;;;;;;29.58;16.75;;;;;;;7.27;100.00;100128.56;20710932;28;20054;-73
2022/11/29 02:29:58;;;;;;;27.90;15.88;;;;;;;7.26;100.00;100123.38;20658589;28;20054;-75
2022/11/29 02:40:00;;;;;;;27.40;16.55;;;;;;;7.28;100.00;100117.28;20657286;28;20054;-75
2022/11/29 02:50:01;;;;;;;27.60;14.80;;;;;;;7.26;100.00;100128.59;20657119;28;20462;-74
2022/11/29 03:00:02;;;;;;;27.58;15.52;;;;;;;7.30;100.00;100123.34;20656389;28;20058;-74
2022/11/29 03:10:03;;;;;;;30.65;14.90;;;;;;;7.33;100.00;100131.16;20656325;28;20054;-74
2022/11/29 03:20:05;;;;;;;28.63;15.23;;;;;;;7.31;100.00;100129.41;20685969;28;20116;-74
2022/11/29 03:30:06;;;;;;;27.02;12.95;;;;;;;7.28;100.00;100148.53;20735624;28;20115;-75
2022/11/29 03:40:07;;;;;;;24.00;13.88;;;;;;;7.32;100.00;100155.44;20736576;28;20061;-74
2022/11/29 03:50:08;;;;;;;24.23;13.02;;;;;;;7.36;100.00;100158.91;20737836;28;20403;-73
2022/11/29 04:00:11;;;;;;;24.52;13.73;;;;;;;7.35;100.00;100159.78;20751351;28;20057;-74
2022/11/29 04:10:12;;;;;;;26.30;13.80;;;;;;;7.36;100.00;100164.09;20750560;28;20112;-74
2022/11/29 04:20:14;;;;;;;23.42;13.38;;;;;;;7.36;100.00;100166.72;20718721;28;20086;-74
2022/11/29 04:30:15;;;;;;;25.45;13.57;;;;;;;7.37;100.00;100181.47;20667038;28;20066;-74
2022/11/29 04:40:16;;;;;;;24.80;14.20;;;;;;;7.39;100.00;100193.59;20667679;28;20058;-73
2022/11/29 04:50:18;;;;;;;23.48;12.93;;;;;;;7.38;100.00;100199.69;20667112;28;20054;-73
2022/11/29 05:00:19;;;;;;;25.05;10.88;;;;;;;7.40;100.00;100203.16;20665334;28;20070;-74
2022/11/29 05:10:20;;;;;;;23.45;11.23;;;;;;;7.39;100.00;100209.25;20664681;28;20054;-74
2022/11/29 05:20:21;;;;;;;23.33;10.57;;;;;;;7.38;100.00;100230.94;20696500;28;20082;-74
2022/11/29 05:30:23;;;;;;;20.23;11.43;;;;;;;7.42;100.00;100239.59;20759182;28;20445;-74
2022/11/29 05:40:24;;;;;;;45.67;21.95;;;;;;;7.37;100.00;100244.81;20743258;28;20125;-75
2022/11/29 05:50:25;;;;;;;26.42;13.05;;;;;;;7.32;100.00;100243.97;20743029;28;20053;-75
2022/11/29 06:00:27;;;;;;;26.92;12.90;;;;;;;7.31;100.00;100262.22;20742172;28;20057;-74
2022/11/29 06:10:28;;;;;;;30.65;14.85;;;;;;;7.34;100.00;100267.44;20741159;28;20312;-74
2022/11/29 06:20:29;;;;;;;31.67;15.70;;;;;;;7.32;100.00;100275.25;20706426;28;20054;-73
2022/11/29 06:30:30;;;;;;;30.55;16.70;;;;;;;7.33;100.00;100287.41;20657483;28;20053;-74
2022/11/29 06:40:32;;;;;;;33.85;19.98;;;;;;;7.35;100.00;100276.97;20657674;28;20101;-73
2022/11/29 06:50:33;;;;;;;32.40;17.75;;;;;;;7.29;100.00;100296.09;20657682;28;20097;-73
2022/11/29 07:00:34;;;;;;;38.22;21.30;;;;;;;7.23;100.00;100300.44;20657827;28;20116;-74
2022/11/29 07:10:36;;;;;;;35.20;20.77;;;;;;;7.18;100.00;100309.16;20728427;28;20407;-75
2022/11/29 07:20:37;;;;;;;41.08;21.52;;;;;;;7.10;100.00;100320.47;20702691;28;20058;-75
2022/11/29 07:30:38;;;;;;;44.35;25.63;;;;;;;7.08;100.00;100330.88;20704533;28;20057;-74
2022/11/29 07:40:39;;;;;;;40.13;25.02;;;;;;;7.04;100.00;100330.88;20753268;28;20506;-74
2022/11/29 07:50:41;;;;;;;41.67;27.42;;;;;;;7.13;100.00;100346.50;20753444;28;20494;-74
2022/11/29 08:00:42;;;;;;;37.50;22.40;;;;;;;7.10;100.00;100356.94;20748895;28;20108;-74
2022/11/29 08:10:43;;;;;;;36.13;22.30;;;;;;;7.08;100.00;100354.31;20709373;28;20042;-74
2022/11/29 08:20:45;;;;;;;35.13;22.40;;;;;;;7.12;100.00;100365.59;20707425;28;20073;-75
2022/11/29 08:30:46;;;;;;;36.25;22.50;;;;;;;7.20;100.00;100375.13;20711097;28;20054;-75
2022/11/29 08:40:48;;;;;;;34.15;21.13;;;;;;;7.27;100.00;100388.97;20703222;28;20109;-75
2022/11/29 08:50:49;;;;;;;35.63;22.25;;;;;;;7.33;100.00;100394.19;20705455;28;20047;-74
2022/11/29 09:00:50;;;;;;;34.38;21.50;;;;;;;7.37;100.00;100408.06;20696628;28;20525;-75
2022/11/29 09:10:52;;;;;;;27.00;18.88;;;;;;;7.34;100.00;100414.16;20746213;28;20054;-76
2022/11/29 09:20:53;;;;;;;30.35;19.42;;;;;;;7.38;100.00;100428.06;20709596;28;20058;-74
2022/11/29 09:30:54;;;;;;;27.73;17.73;;;;;;;7.55;100.00;100435.81;20670420;28;20058;-77
2022/11/29 09:40:56;;;;;;;28.83;17.17;;;;;;;7.64;100.00;100441.00;20748905;28;20517;-79
2022/11/29 09:50:57;;;;;;;30.15;19.50;;;;;;;7.82;100.00;100443.53;20746298;28;20054;-78
2022/11/29 10:00:58;;;;;;;25.20;16.23;;;;;;;7.87;100.00;100447.00;20749588;28;20096;-78
2022/11/29 10:11:00;;;;;;;24.08;15.65;;;;;;;7.98;100.00;100455.63;20752326;28;20464;-80
2022/11/29 10:21:01;;;;;;;23.15;16.00;;;;;;;8.12;100.00;100454.72;20747225;28;20066;-80
2022/11/29 10:31:02;;;;;;;23.60;13.88;;;;;;;8.06;100.00;100458.22;20978542;28;20118;-79
2022/11/29 10:41:04;;;;;;;23.83;16.08;;;;;;;8.09;100.00;100454.72;20992782;28;20052;-78
2022/11/29 10:51:05;;;;;;;26.45;15.55;;;;;;;8.16;100.00;100457.28;20990315;28;20083;-79
2022/11/29 11:01:06;;;;;;;26.95;16.42;;;;;;;8.19;100.00;100445.97;20986274;28;20041;-78
2022/11/29 11:11:08;;;;;;;23.45;15.30;;;;;;;8.24;100.00;100446.84;20984778;28;20052;-78
2022/11/29 11:21:10;;;;;;;24.98;16.77;;;;;;;8.45;100.00;100438.91;20986968;28;20059;-78
2022/11/29 11:31:12;;;;;;;25.02;15.07;;;;;;;8.55;100.00;100447.53;20985344;28;20135;-78
2022/11/29 11:41:13;;;;;;;24.90;15.80;;;;;;;8.61;100.00;100451.84;20983057;28;20048;-78
2022/11/29 11:51:14;;;;;;;23.50;15.32;;;;;;;8.58;100.00;100452.75;20982216;28;20061;-80
2022/11/29 12:01:16;;;;;;;27.20;15.30;;;;;;;8.62;100.00;100456.16;20981731;28;20412;-76
2022/11/29 12:11:17;;;;;;;26.70;15.15;;;;;;;8.66;100.00;100465.72;20983138;28;20084;-77
2022/11/29 12:21:18;;;;;;;25.77;15.48;;;;;;;8.55;100.00;100468.41;20995721;28;20056;-76
2022/11/29 12:31:20;;;;;;;67.15;32.50;;;;;;;8.52;100.00;100471.03;20995351;28;20110;-76
2022/11/29 12:41:21;;;;;;;32.47;17.98;;;;;;;8.50;100.00;100466.72;20994326;28;20057;-76
2022/11/29 12:51:22;;;;;;;32.78;17.10;;;;;;;8.53;100.00;100474.50;20994048;28;20084;-76
2022/11/29 13:01:24;;;;;;;32.75;19.02;;;;;;;8.40;100.00;100469.38;20991868;28;20166;-76
2022/11/29 13:11:26;;;;;;;34.13;18.35;;;;;;;8.32;100.00;100485.91;20990402;28;20052;-77
2022/11/29 13:21:27;;;;;;;41.55;22.70;;;;;;;8.14;100.00;100486.84;20989664;28;20056;-76
2022/11/29 13:31:28;;;;;;;28.08;13.68;;;;;;;8.07;100.00;100490.38;20990328;28;20492;-76
2022/11/29 13:41:30;;;;;;;26.02;12.93;;;;;;;8.14;100.00;100495.53;20988935;28;20063;-75
2022/11/29 13:51:32;;;;;;;35.55;17.35;;;;;;;8.14;100.00;100505.09;20989182;28;20052;-79
2022/11/29 14:01:49;;;;;;;39.63;18.25;;;;;;;8.13;100.00;100512.06;21007220;28;20048;-77
2022/11/29 14:11:50;;;;;;;38.70;19.48;;;;;;;8.19;100.00;100506.84;21000839;28;20068;-80
2022/11/29 14:21:52;;;;;;;61.15;26.30;;;;;;;8.25;100.00;100511.16;20969890;28;20052;-76
2022/11/29 14:31:53;;;;;;;54.90;24.35;;;;;;;8.31;100.00;100515.47;20955401;28;20049;-75
2022/11/29 14:41:54;;;;;;;48.70;24.27;;;;;;;8.28;100.00;100521.56;20876616;28;20461;-77
2022/11/29 14:51:55;;;;;;;40.22;21.10;;;;;;;8.31;100.00;100524.16;20877465;28;20091;-78
2022/11/29 15:01:57;;;;;;;43.13;20.98;;;;;;;8.32;100.00;100532.84;20885918;28;20053;-79
2022/11/29 15:11:59;;;;;;;40.17;18.23;;;;;;;8.22;100.00;100539.84;20876016;28;20437;-79
2022/11/29 15:22:02;;;;;;;47.50;22.15;;;;;;;8.25;100.00;100544.22;20891187;28;20072;-78
2022/11/29 15:32:03;;;;;;;45.65;21.50;;;;;;;8.22;100.00;100555.50;20887296;28;20509;-77
2022/11/29 15:42:07;;;;;;;48.47;26.35;;;;;;;8.19;100.00;100561.63;20884490;28;20119;-76
2022/11/29 15:52:10;;;;;;;53.00;26.40;;;;;;;8.21;100.00;100572.91;20897905;28;20126;-77
2022/11/29 16:02:13;;;;;;;51.47;24.58;;;;;;;8.26;100.00;100585.06;20899917;28;20051;-75
2022/11/29 16:12:15;;;;;;;58.58;29.00;;;;;;;8.31;100.00;100586.78;20897752;28;20057;-77
2022/11/29 16:22:16;;;;;;;55.53;26.90;;;;;;;8.20;100.00;100583.34;20897992;28;20539;-77
2022/11/29 16:32:17;;;;;;;60.20;24.23;;;;;;;8.14;100.00;100597.25;20898494;28;20045;-76
2022/11/29 16:42:22;;;;;;;54.05;26.65;;;;;;;8.20;100.00;100601.59;20897593;28;20075;-76
2022/11/29 16:52:26;;;;;;;57.78;26.65;;;;;;;8.18;100.00;100598.13;20897345;28;20531;-77
2022/11/29 17:02:27;;;;;;;52.80;25.90;;;;;;;8.17;100.00;100602.47;20889009;28;20480;-76
2022/11/29 17:12:29;;;;;;;57.88;27.48;;;;;;;8.14;100.00;100604.19;20875551;28;20057;-77
2022/11/29 17:22:30;;;;;;;58.35;26.73;;;;;;;8.14;100.00;100606.81;20817860;28;20111;-77
2022/11/29 17:32:31;;;;;;;64.07;29.08;;;;;;;8.12;100.00;100619.00;20811177;28;20099;-77
2022/11/29 17:42:33;;;;;;;57.80;28.27;;;;;;;8.12;100.00;100613.78;20812757;28;20139;-76
2022/11/29 17:52:34;;;;;;;58.50;26.02;;;;;;;8.07;100.00;100623.34;20815526;28;20095;-76
2022/11/29 18:02:35;;;;;;;61.75;27.40;;;;;;;8.07;100.00;100632.03;20917696;28;20077;-76
2022/11/29 18:12:36;;;;;;;72.55;34.45;;;;;;;8.07;100.00;100637.25;20940989;28;20086;-77
2022/11/29 18:22:38;;;;;;;62.05;29.55;;;;;;;7.97;100.00;100653.78;20970660;28;20158;-77
2022/11/29 18:32:39;;;;;;;55.35;28.05;;;;;;;7.95;100.00;100655.53;20979088;28;20048;-77
2022/11/29 18:42:41;;;;;;;52.45;25.85;;;;;;;7.90;100.00;100642.47;20980549;28;20122;-77
2022/11/29 18:52:42;;;;;;;52.45;25.75;;;;;;;7.89;100.00;100659.00;20968746;28;20185;-76
2022/11/29 19:02:43;;;;;;;54.17;25.65;;;;;;;7.86;100.00;100659.03;20968231;28;20049;-76
2022/11/29 19:12:44;;;;;;;52.88;25.08;;;;;;;7.93;100.00;100665.09;20964304;28;20123;-76
2022/11/29 19:22:46;;;;;;;53.15;27.23;;;;;;;7.86;100.00;100664.25;20965727;28;20566;-77
2022/11/29 19:32:47;;;;;;;54.30;26.85;;;;;;;7.80;100.00;100669.44;20964590;28;20082;-77
2022/11/29 19:42:49;;;;;;;50.47;25.48;;;;;;;7.78;100.00;100676.41;20964756;28;20550;-77
2022/11/29 19:52:50;;;;;;;50.67;27.20;;;;;;;7.84;100.00;100678.13;20990803;22;20083;-76
2022/11/29 20:02:51;;;;;;;52.28;27.95;;;;;;;7.75;100.00;100684.19;20965336;28;20405;-76
2022/11/29 20:12:53;;;;;;;54.20;27.70;;;;;;;7.80;100.00;100689.41;20964158;28;20398;-74
2022/11/29 20:22:54;;;;;;;52.55;27.30;;;;;;;7.70;100.00;100692.03;20965304;28;20091;-75
2022/11/29 20:32:55;;;;;;;52.85;25.00;;;;;;;7.70;100.00;100684.19;20967871;28;20098;-74
2022/11/29 20:42:56;;;;;;;56.60;25.65;;;;;;;7.71;100.00;100695.50;20978138;28;20056;-74
2022/11/29 20:52:58;;;;;;;47.60;24.98;;;;;;;7.70;100.00;100704.19;20977251;28;20488;-73
2022/11/29 21:02:59;;;;;;;43.72;22.85;;;;;;;7.67;100.00;100704.19;20974935;28;20041;-74
2022/11/29 21:13:01;;;;;;;43.25;23.25;;;;;;;7.62;100.00;100716.38;20974953;28;20052;-74
2022/11/29 21:23:02;;;;;;;47.75;24.15;;;;;;;7.65;100.00;100721.56;20976487;28;20135;-76
2022/11/29 21:33:03;;;;;;;53.70;27.40;;;;;;;7.64;100.00;100725.03;20974449;28;20101;-74
2022/11/29 21:43:04;;;;;;;49.97;23.90;;;;;;;7.65;100.00;100726.78;20973136;28;20045;-74
2022/11/29 21:53:06;;;;;;;45.05;24.13;;;;;;;7.64;100.00;100735.47;20972122;28;20052;-73
2022/11/29 22:03:07;;;;;;;44.33;24.33;;;;;;;7.68;100.00;100743.28;20973077;28;20291;-74
2022/11/29 22:13:08;;;;;;;52.72;26.17;;;;;;;7.58;100.00;100727.66;20965647;28;20044;-72
2022/11/29 22:23:09;;;;;;;45.25;25.70;;;;;;;7.53;100.00;100725.03;20971224;28;20500;-73
2022/11/29 22:33:11;;;;;;;51.85;26.08;;;;;;;7.59;100.00;100734.59;20994661;28;20083;-72
2022/11/29 22:43:13;;;;;;;51.25;25.08;;;;;;;7.53;100.00;100738.06;21053256;28;20052;-73
2022/11/29 22:53:15;;;;;;;48.63;25.77;;;;;;;7.58;100.00;100741.53;21052663;28;20044;-73
2022/11/29 23:03:16;;;;;;;54.00;26.00;;;;;;;7.60;100.00;100744.13;21053081;28;20048;-73
2022/11/29 23:13:17;;;;;;;52.15;25.40;;;;;;;7.64;100.00;100735.47;21056024;28;20537;-73
2022/11/29 23:23:18;;;;;;;46.78;24.42;;;;;;;7.67;100.00;100740.69;21055367;28;20492;-75
2022/11/29 23:33:20;;;;;;;45.20;21.83;;;;;;;7.42;100.00;100740.59;21035782;28;20044;-73
2022/11/29 23:43:21;;;;;;;48.42;20.92;;;;;;;7.41;100.00;100731.06;21052858;28;20355;-73
2022/11/29 23:53:22;;;;;;;46.75;20.00;;;;;;;7.24;100.00;100724.97;21053263;28;20056;-73
